Sawyer William — WDD9255 — position and weather

sailwx.info

Track history (hours):
 
Tides and Currents Weather Stations Pressure Air Temp Water Temp Dewpoint Dewpoint Depression Visibility Wind Speed Wind Dir Waves Ship Positions

Sawyer William

Owner: Florida Marine, LLC, Mandeville, LA. More information available from US FCC via Universal Licensing System and Coast Guard Vessel Documentation Center.

Last reported at 2018-Jun-19 05:16 UTC. Time now 2018-Jun-20 12:56 UTC.
Position N 29°51' W 091°55'.

Length 27 m; draft 2.8 m.

MMSI: 367308990.

Date/timePositionNaut miles runAvg speedWind from/ knotsBaromVisibWave heightAir tempDewpointWater temp
2018-Jun-19 05:16N 29°51' W 091°55'1 5.3
2018-Jun-19 05:00N 29°51' W 091°56'2 4.8
2018-Jun-19 04:31N 29°50' W 091°59'3 5.3
2018-Jun-19 04:01N 29°49' W 092°02'2 4.7
2018-Jun-19 03:31N 29°48' W 092°04'2 4.2
2018-Jun-19 03:00N 29°48' W 092°07'2 4.3
2018-Jun-19 02:30N 29°47' W 092°09'2 3.9
2018-Jun-19 02:01N 29°47' W 092°11'1 2.1
2018-Jun-19 01:31N 29°47' W 092°12'0 0.8
2018-Jun-19 01:01N 29°47' W 092°13'1 2.1
2018-Jun-19 00:30N 29°48' W 092°14'0 0.7
2018-Jun-19 00:00N 29°48' W 092°14'0 0.0
2018-Jun-18 23:28N 29°48' W 092°14'0 0.4
2018-Jun-18 23:00N 29°48' W 092°15'0 0.2
2018-Jun-18 22:30N 29°48' W 092°15'0 0.9
2018-Jun-18 22:00N 29°48' W 092°15'0 0.1
2018-Jun-18 21:31N 29°48' W 092°15'0 0.1
2018-Jun-18 21:01N 29°48' W 092°15'0 0.3
2018-Jun-18 20:31N 29°48' W 092°15'1 1.3
2018-Jun-18 20:00N 29°49' W 092°16'0 0.2
2018-Jun-18 19:30N 29°49' W 092°16'0 0.1
2018-Jun-18 19:00N 29°49' W 092°16'0 0.0
2018-Jun-18 18:31N 29°49' W 092°16'0 0.4
2018-Jun-18 18:00N 29°49' W 092°16'0 0.1
2018-Jun-18 17:30N 29°49' W 092°16'0 0.2
2018-Jun-18 17:00N 29°49' W 092°17'0 0.0
2018-Jun-18 16:31N 29°49' W 092°17'0 0.1
2018-Jun-18 16:00N 29°49' W 092°17'0 0.0
2018-Jun-18 15:31N 29°49' W 092°17'0 0.2
2018-Jun-18 15:00N 29°49' W 092°17'1 1.2
2018-Jun-18 14:30N 29°49' W 092°17'1 1.6
2018-Jun-18 13:59N 29°50' W 092°18'0 0.0
2018-Jun-18 13:31N 29°50' W 092°18'0 0.8
2018-Jun-18 13:01N 29°50' W 092°18'2 3.5
2018-Jun-18 12:31N 29°51' W 092°20'39 3.6
2018-Jun-18 01:38N 29°56' W 093°05'1 3.8
2018-Jun-18 01:16N 29°56' W 093°06'3 4.0
2018-Jun-18 00:37N 29°56' W 093°09'0 4.2
2018-Jun-18 00:30N 29°56' W 093°10'2 4.2
2018-Jun-18 00:01N 29°58' W 093°11'2 3.5
2018-Jun-17 23:30N 29°59' W 093°13'2 3.5
2018-Jun-17 23:00N 30°01' W 093°14'1 2.8
2018-Jun-17 22:30N 30°02' W 093°15'1 2.9
2018-Jun-17 22:01N 30°03' W 093°16'2 3.6
2018-Jun-17 21:31N 30°05' W 093°17'1 2.2
2018-Jun-17 21:01N 30°05' W 093°18'1 1.3
2018-Jun-17 20:31N 30°06' W 093°18'1 1.4
2018-Jun-17 20:00N 30°06' W 093°19'0 0.1
2018-Jun-17 19:30N 30°06' W 093°19'0 0.1
2018-Jun-17 19:00N 30°06' W 093°19'0 0.0
2018-Jun-17 18:31N 30°06' W 093°19'0 0.1
2018-Jun-17 18:01N 30°06' W 093°19'0 0.0
2018-Jun-17 17:31N 30°06' W 093°19'0 0.0
2018-Jun-17 17:01N 30°06' W 093°19'0 0.0
2018-Jun-17 16:30N 30°06' W 093°19'0 0.0
2018-Jun-17 16:00N 30°06' W 093°19'0 0.0
2018-Jun-17 15:30N 30°06' W 093°19'0 0.0
2018-Jun-17 15:00N 30°06' W 093°19'0 0.1
2018-Jun-17 14:29N 30°06' W 093°19'0 0.2
2018-Jun-17 14:00N 30°06' W 093°19'2 3.0
2018-Jun-17 13:30N 30°05' W 093°20'2 3.1
2018-Jun-17 13:00N 30°04' W 093°21'1 3.0
2018-Jun-17 12:31N 30°04' W 093°23'1 1.8
2018-Jun-17 12:01N 30°04' W 093°24'1 1.6
2018-Jun-17 11:30N 30°04' W 093°25'0 0.0
2018-Jun-17 11:01N 30°04' W 093°25'0 0.0
2018-Jun-17 10:30N 30°04' W 093°25'0 0.0
2018-Jun-17 10:01N 30°04' W 093°25'0 0.0
2018-Jun-17 09:31N 30°04' W 093°25'0 0.0
2018-Jun-17 09:00N 30°04' W 093°25'0 0.0
2018-Jun-17 08:30N 30°04' W 093°25'0 0.0
2018-Jun-17 08:01N 30°04' W 093°25'0 0.0
2018-Jun-17 07:31N 30°04' W 093°25'0 0.1
2018-Jun-17 07:01N 30°04' W 093°25'0 0.2
2018-Jun-17 06:30N 30°04' W 093°25'0 0.1
2018-Jun-17 06:01N 30°04' W 093°25'0 0.2
2018-Jun-17 05:31N 30°04' W 093°25'0 0.0
2018-Jun-17 05:00N 30°04' W 093°25'0 0.0
2018-Jun-17 04:31N 30°04' W 093°25'0 0.0
2018-Jun-17 04:01N 30°04' W 093°25'0 0.0
2018-Jun-17 03:30N 30°04' W 093°25'0 0.0
2018-Jun-17 03:01N 30°04' W 093°25'0 0.0
2018-Jun-17 02:30N 30°04' W 093°25'0 0.3
2018-Jun-17 02:01N 30°04' W 093°25'2 3.2
2018-Jun-17 01:30N 30°04' W 093°27'2 4.3
2018-Jun-17 01:00N 30°04' W 093°30'2 4.3
2018-Jun-17 00:30N 30°04' W 093°32'2 4.4
2018-Jun-17 00:00N 30°04' W 093°35'2 4.5
2018-Jun-16 23:31N 30°04' W 093°37'3 5.0
2018-Jun-16 23:00N 30°03' W 093°40'2 4.2
2018-Jun-16 22:30N 30°03' W 093°43'2 5.0
2018-Jun-16 22:00N 30°01' W 093°44'3 5.6
2018-Jun-16 21:30N 29°60' W 093°47'3 5.7
2018-Jun-16 21:00N 29°59' W 093°50'2 4.5
2018-Jun-16 20:30N 29°59' W 093°53'3 5.9
2018-Jun-16 20:01N 29°59' W 093°56'2 4.9
2018-Jun-16 19:31N 30°01' W 093°58'1 1.4
2018-Jun-16 19:00N 30°01' W 093°59'0 0.1
2018-Jun-16 18:30N 30°01' W 093°59'0 0.0
2018-Jun-16 18:00N 30°01' W 093°59'0 0.0
2018-Jun-16 17:31N 30°01' W 093°59'0 0.0
2018-Jun-16 17:00N 30°01' W 093°59'0 0.0
2018-Jun-16 16:31N 30°01' W 093°59'0 0.0
2018-Jun-16 16:00N 30°01' W 093°59'0 0.0
2018-Jun-16 15:30N 30°01' W 093°59'0 0.0
2018-Jun-16 15:01N 30°01' W 093°59'0 0.0
2018-Jun-16 14:30N 30°01' W 093°59'0 0.0
2018-Jun-16 14:00N 30°01' W 093°59'0 0.0
2018-Jun-16 13:30N 30°01' W 093°59'0 0.0
2018-Jun-16 13:00N 30°01' W 093°59'0 0.0
2018-Jun-16 12:31N 30°01' W 093°59'0 0.0
2018-Jun-16 12:00N 30°01' W 093°59'0 0.0
2018-Jun-16 11:31N 30°01' W 093°59'0 0.0
2018-Jun-16 11:00N 30°01' W 093°59'0 0.0
2018-Jun-16 10:30N 30°01' W 093°59'0 0.0
2018-Jun-16 10:00N 30°01' W 093°59'0 0.0
2018-Jun-16 09:30N 30°01' W 093°59'0 0.0
2018-Jun-16 09:01N 30°01' W 093°59'0 0.0
2018-Jun-16 08:30N 30°01' W 093°59'0 0.0
2018-Jun-16 08:00N 30°01' W 093°59'0 0.0
2018-Jun-16 07:31N 30°01' W 093°59'0 0.0
2018-Jun-16 07:00N 30°01' W 093°59'0 0.0
2018-Jun-16 06:31N 30°01' W 093°59'0 0.0
2018-Jun-16 06:01N 30°01' W 093°59'0 0.0
2018-Jun-16 05:30N 30°01' W 093°59'0 0.0
2018-Jun-16 05:00N 30°01' W 093°59'0 0.0
2018-Jun-16 04:30N 30°01' W 093°59'0 0.0
2018-Jun-16 04:00N 30°01' W 093°59'0 0.0
2018-Jun-16 03:30N 30°01' W 093°59'0 0.0
2018-Jun-16 03:01N 30°01' W 093°59'0 0.0
2018-Jun-16 02:30N 30°01' W 093°59'0 0.0
2018-Jun-16 02:00N 30°01' W 093°59'0 0.0
2018-Jun-16 01:31N 30°01' W 093°59'0 0.9
2018-Jun-16 01:01N 30°01' W 093°59'0 0.1
2018-Jun-16 00:28N 30°01' W 093°59'0 0.0
2018-Jun-16 00:00N 30°01' W 093°59'0 0.0
2018-Jun-15 23:30N 30°01' W 093°59'0 0.0
2018-Jun-15 23:01N 30°01' W 093°59'0 0.0
2018-Jun-15 22:30N 30°01' W 093°59'0 0.1
2018-Jun-15 22:00N 30°01' W 093°59'0 0.9
2018-Jun-15 21:31N 30°01' W 093°59'0 0.2
2018-Jun-15 21:00N 30°01' W 093°59'0 0.0
2018-Jun-15 20:30N 30°01' W 093°59'0 0.0
2018-Jun-15 20:00N 30°01' W 093°59'0 0.0
2018-Jun-15 19:31N 30°01' W 093°59'0 0.0
2018-Jun-15 19:00N 30°01' W 093°59'0 0.0
2018-Jun-15 18:30N 30°01' W 093°59'0 0.0
2018-Jun-15 18:00N 30°01' W 093°59'0 0.0
2018-Jun-15 17:31N 30°01' W 093°59'0 0.0
2018-Jun-15 17:01N 30°01' W 093°59'0 0.0
2018-Jun-15 16:30N 30°01' W 093°59'0 0.0
2018-Jun-15 16:00N 30°01' W 093°59'0 0.0
2018-Jun-15 15:31N 30°01' W 093°59'0 0.0
2018-Jun-15 15:00N 30°01' W 093°59'0 0.2
2018-Jun-15 14:30N 30°01' W 093°59'1 1.8
2018-Jun-15 14:01N 30°01' W 093°59'1 2.4
2018-Jun-15 13:30N 30°00' W 093°57'3 6.4
2018-Jun-15 13:00N 29°59' W 093°54'3 5.7
2018-Jun-15 12:30N 29°58' W 093°51'3 5.3
2018-Jun-15 12:00N 29°59' W 093°48'3 5.4
2018-Jun-15 11:30N 30°01' W 093°45'3 5.3
2018-Jun-15 11:00N 30°03' W 093°44'3 5.4
2018-Jun-15 10:30N 30°03' W 093°40'3 6.1
2018-Jun-15 10:00N 30°04' W 093°37'3 5.6
2018-Jun-15 09:29N 30°04' W 093°34'3 5.5
2018-Jun-15 09:00N 30°04' W 093°31'3 5.5
2018-Jun-15 08:31N 30°04' W 093°27'3 5.5
2018-Jun-15 08:01N 30°04' W 093°24'2 4.7
2018-Jun-15 07:31N 30°04' W 093°21'2 3.8
2018-Jun-15 07:01N 30°05' W 093°20'2 3.7
2018-Jun-15 06:31N 30°06' W 093°18'1 1.4
2018-Jun-15 06:01N 30°05' W 093°17'1 1.5
2018-Jun-15 05:30N 30°05' W 093°17'2 3.1
2018-Jun-15 05:01N 30°03' W 093°16'1 1.4
2018-Jun-15 04:31N 30°03' W 093°16'0 0.0
2018-Jun-15 04:01N 30°03' W 093°16'0 0.0
2018-Jun-15 03:31N 30°03' W 093°16'0 0.0
2018-Jun-15 03:01N 30°03' W 093°16'0 0.0
2018-Jun-15 02:31N 30°03' W 093°16'0 0.0
2018-Jun-15 02:00N 30°03' W 093°16'0 0.0
2018-Jun-15 01:29N 30°03' W 093°16'0 0.0
2018-Jun-15 01:00N 30°03' W 093°16'0 0.0
2018-Jun-15 00:30N 30°03' W 093°16'0 0.0
2018-Jun-15 00:00N 30°03' W 093°16'0 0.0
2018-Jun-14 23:30N 30°03' W 093°16'0 0.0
2018-Jun-14 22:59N 30°03' W 093°16'0 0.0
2018-Jun-14 22:26N 30°03' W 093°16'0 0.0
2018-Jun-14 22:01N 30°03' W 093°16'0 0.0
2018-Jun-14 21:24N 30°03' W 093°16'0 0.0
2018-Jun-14 20:58N 30°03' W 093°16'0 0.0
2018-Jun-14 20:29N 30°03' W 093°16'0 0.0
2018-Jun-14 20:00N 30°03' W 093°16'0 0.0
2018-Jun-14 19:30N 30°03' W 093°16'0 0.0
2018-Jun-14 19:00N 30°03' W 093°16'0 0.0
2018-Jun-14 18:30N 30°03' W 093°16'0 0.0
2018-Jun-14 18:01N 30°03' W 093°16'0 0.0
2018-Jun-14 17:31N 30°03' W 093°16'0 0.0
2018-Jun-14 17:00N 30°03' W 093°16'0 0.0
2018-Jun-14 16:31N 30°03' W 093°16'0 0.0
2018-Jun-14 16:01N 30°03' W 093°16'0 0.0
2018-Jun-14 15:31N 30°03' W 093°16'0 0.0
2018-Jun-14 15:00N 30°03' W 093°16'0 0.0
2018-Jun-14 14:31N 30°03' W 093°16'0 0.0
2018-Jun-14 14:01N 30°03' W 093°16'0 0.0
2018-Jun-14 13:30N 30°03' W 093°16'0 0.0
2018-Jun-14 13:01N 30°03' W 093°16'0 0.0
2018-Jun-14 12:30N 30°03' W 093°16'0 0.0
2018-Jun-14 12:00N 30°03' W 093°16'0 0.0
2018-Jun-14 11:30N 30°03' W 093°16'0 0.0
2018-Jun-14 10:59N 30°03' W 093°16'0 0.0
2018-Jun-14 10:30N 30°03' W 093°16'0 0.0
2018-Jun-14 09:59N 30°03' W 093°16'0 0.0
2018-Jun-14 09:30N 30°03' W 093°16'0 0.6
2018-Jun-14 09:00N 30°02' W 093°16'2 4.4
2018-Jun-14 08:31N 30°01' W 093°14'2 4.8
2018-Jun-14 08:01N 29°59' W 093°12'2 3.1
2018-Jun-14 07:31N 29°58' W 093°11'0 0.0
2018-Jun-14 07:00N 29°58' W 093°11'0 0.0
2018-Jun-14 06:31N 29°58' W 093°11'0 0.0
2018-Jun-14 06:01N 29°58' W 093°11'0 0.0
2018-Jun-14 05:31N 29°58' W 093°11'0 0.0
2018-Jun-14 05:01N 29°58' W 093°11'0 0.0
2018-Jun-14 04:31N 29°58' W 093°11'0 0.0
2018-Jun-14 04:01N 29°58' W 093°11'0 0.0
2018-Jun-14 03:30N 29°58' W 093°11'0 0.0
2018-Jun-14 03:00N 29°58' W 093°11'0 0.0
2018-Jun-14 02:30N 29°58' W 093°11'0 0.0
2018-Jun-14 02:01N 29°58' W 093°11'0 0.0
2018-Jun-14 01:30N 29°58' W 093°11'0 0.0
2018-Jun-14 01:01N 29°58' W 093°11'0 0.7
2018-Jun-14 00:31N 29°57' W 093°11'2 3.9
2018-Jun-14 00:00N 29°56' W 093°09'1 2.1
2018-Jun-13 23:31N 29°56' W 093°08'0 0.0
2018-Jun-13 23:01N 29°56' W 093°08'0 0.0
2018-Jun-13 22:28N 29°56' W 093°08'0 0.0
2018-Jun-13 22:01N 29°56' W 093°08'0 0.0
2018-Jun-13 21:28N 29°56' W 093°08'0 0.0
2018-Jun-13 21:00N 29°56' W 093°08'0 0.1
2018-Jun-13 20:30N 29°56' W 093°08'2 3.6
2018-Jun-13 19:57N 29°56' W 093°06'34 5.1
2018-Jun-13 13:17N 29°53' W 092°27'2 6.3
2018-Jun-13 13:00N 29°53' W 092°25'3 5.2
2018-Jun-13 12:22N 29°51' W 092°22'2 5.4
2018-Jun-13 12:00N 29°50' W 092°20'2 4.5
2018-Jun-13 11:31N 29°49' W 092°17'3 5.6
2018-Jun-13 11:00N 29°48' W 092°15'2 4.2
2018-Jun-13 10:31N 29°47' W 092°12'1 2.1
2018-Jun-13 10:00N 29°47' W 092°11'0 0.1
2018-Jun-13 09:31N 29°47' W 092°11'0 0.0
2018-Jun-13 09:00N 29°47' W 092°11'0 0.0
2018-Jun-13 08:30N 29°47' W 092°11'0 0.1
2018-Jun-13 08:00N 29°47' W 092°11'1 2.7
2018-Jun-13 07:30N 29°47' W 092°10'2 4.7
2018-Jun-13 07:00N 29°47' W 092°07'2 4.9
2018-Jun-13 06:30N 29°48' W 092°04'2 4.1
2018-Jun-13 06:00N 29°49' W 092°02'1 2.5
2018-Jun-13 05:30N 29°50' W 092°01'0 0.0
2018-Jun-13 05:00N 29°50' W 092°01'0 0.0
2018-Jun-13 04:30N 29°50' W 092°01'2 3.4
2018-Jun-13 03:55N 29°50' W 091°59'  
2018-Jun-09 08:03N 29°51' W 091°55'0 5.0
2018-Jun-09 08:01N 29°51' W 091°55'2 4.7
2018-Jun-09 07:30N 29°50' W 091°57'2 4.7
2018-Jun-09 07:00N 29°50' W 092°00'2 4.5
2018-Jun-09 06:31N 29°49' W 092°02'2 4.4
2018-Jun-09 06:00N 29°48' W 092°05'2 3.7
2018-Jun-09 05:31N 29°48' W 092°07'  
Track history (hours):
 
Tides and Currents Weather Stations Pressure Air Temp Water Temp Dewpoint Dewpoint Depression Visibility Wind Speed Wind Dir Waves Ship Positions

Sawyer William

Owner: Florida Marine, LLC, Mandeville, LA. More information available from US FCC via Universal Licensing System and Coast Guard Vessel Documentation Center.

Last reported at 2018-Jun-19 05:16 UTC. Time now 2018-Jun-20 12:56 UTC.
Position N 29°51' W 091°55'.

Length 27 m; draft 2.8 m.

MMSI: 367308990.

Date/timePositionNaut miles runAvg speedWind from/ knotsBaromVisibWave heightAir tempDewpointWater temp
2018-Jun-19 05:16N 29°51' W 091°55'1 5.3
2018-Jun-19 05:00N 29°51' W 091°56'2 4.8
2018-Jun-19 04:31N 29°50' W 091°59'3 5.3
2018-Jun-19 04:01N 29°49' W 092°02'2 4.7
2018-Jun-19 03:31N 29°48' W 092°04'2 4.2
2018-Jun-19 03:00N 29°48' W 092°07'2 4.3
2018-Jun-19 02:30N 29°47' W 092°09'2 3.9
2018-Jun-19 02:01N 29°47' W 092°11'1 2.1
2018-Jun-19 01:31N 29°47' W 092°12'0 0.8
2018-Jun-19 01:01N 29°47' W 092°13'1 2.1
2018-Jun-19 00:30N 29°48' W 092°14'0 0.7
2018-Jun-19 00:00N 29°48' W 092°14'0 0.0
2018-Jun-18 23:28N 29°48' W 092°14'0 0.4
2018-Jun-18 23:00N 29°48' W 092°15'0 0.2
2018-Jun-18 22:30N 29°48' W 092°15'0 0.9
2018-Jun-18 22:00N 29°48' W 092°15'0 0.1
2018-Jun-18 21:31N 29°48' W 092°15'0 0.1
2018-Jun-18 21:01N 29°48' W 092°15'0 0.3
2018-Jun-18 20:31N 29°48' W 092°15'1 1.3
2018-Jun-18 20:00N 29°49' W 092°16'0 0.2
2018-Jun-18 19:30N 29°49' W 092°16'0 0.1
2018-Jun-18 19:00N 29°49' W 092°16'0 0.0
2018-Jun-18 18:31N 29°49' W 092°16'0 0.4
2018-Jun-18 18:00N 29°49' W 092°16'0 0.1
2018-Jun-18 17:30N 29°49' W 092°16'0 0.2
2018-Jun-18 17:00N 29°49' W 092°17'0 0.0
2018-Jun-18 16:31N 29°49' W 092°17'0 0.1
2018-Jun-18 16:00N 29°49' W 092°17'0 0.0
2018-Jun-18 15:31N 29°49' W 092°17'0 0.2
2018-Jun-18 15:00N 29°49' W 092°17'1 1.2
2018-Jun-18 14:30N 29°49' W 092°17'1 1.6
2018-Jun-18 13:59N 29°50' W 092°18'0 0.0
2018-Jun-18 13:31N 29°50' W 092°18'0 0.8
2018-Jun-18 13:01N 29°50' W 092°18'2 3.5
2018-Jun-18 12:31N 29°51' W 092°20'39 3.6
2018-Jun-18 01:38N 29°56' W 093°05'1 3.8
2018-Jun-18 01:16N 29°56' W 093°06'3 4.0
2018-Jun-18 00:37N 29°56' W 093°09'0 4.2
2018-Jun-18 00:30N 29°56' W 093°10'2 4.2
2018-Jun-18 00:01N 29°58' W 093°11'2 3.5
2018-Jun-17 23:30N 29°59' W 093°13'2 3.5
2018-Jun-17 23:00N 30°01' W 093°14'1 2.8
2018-Jun-17 22:30N 30°02' W 093°15'1 2.9
2018-Jun-17 22:01N 30°03' W 093°16'2 3.6
2018-Jun-17 21:31N 30°05' W 093°17'1 2.2
2018-Jun-17 21:01N 30°05' W 093°18'1 1.3
2018-Jun-17 20:31N 30°06' W 093°18'1 1.4
2018-Jun-17 20:00N 30°06' W 093°19'0 0.1
2018-Jun-17 19:30N 30°06' W 093°19'0 0.1
2018-Jun-17 19:00N 30°06' W 093°19'0 0.0
2018-Jun-17 18:31N 30°06' W 093°19'0 0.1
2018-Jun-17 18:01N 30°06' W 093°19'0 0.0
2018-Jun-17 17:31N 30°06' W 093°19'0 0.0
2018-Jun-17 17:01N 30°06' W 093°19'0 0.0
2018-Jun-17 16:30N 30°06' W 093°19'0 0.0
2018-Jun-17 16:00N 30°06' W 093°19'0 0.0
2018-Jun-17 15:30N 30°06' W 093°19'0 0.0
2018-Jun-17 15:00N 30°06' W 093°19'0 0.1
2018-Jun-17 14:29N 30°06' W 093°19'0 0.2
2018-Jun-17 14:00N 30°06' W 093°19'2 3.0
2018-Jun-17 13:30N 30°05' W 093°20'2 3.1
2018-Jun-17 13:00N 30°04' W 093°21'1 3.0
2018-Jun-17 12:31N 30°04' W 093°23'1 1.8
2018-Jun-17 12:01N 30°04' W 093°24'1 1.6
2018-Jun-17 11:30N 30°04' W 093°25'0 0.0
2018-Jun-17 11:01N 30°04' W 093°25'0 0.0
2018-Jun-17 10:30N 30°04' W 093°25'0 0.0
2018-Jun-17 10:01N 30°04' W 093°25'0 0.0
2018-Jun-17 09:31N 30°04' W 093°25'0 0.0
2018-Jun-17 09:00N 30°04' W 093°25'0 0.0
2018-Jun-17 08:30N 30°04' W 093°25'0 0.0
2018-Jun-17 08:01N 30°04' W 093°25'0 0.0
2018-Jun-17 07:31N 30°04' W 093°25'0 0.1
2018-Jun-17 07:01N 30°04' W 093°25'0 0.2
2018-Jun-17 06:30N 30°04' W 093°25'0 0.1
2018-Jun-17 06:01N 30°04' W 093°25'0 0.2
2018-Jun-17 05:31N 30°04' W 093°25'0 0.0
2018-Jun-17 05:00N 30°04' W 093°25'0 0.0
2018-Jun-17 04:31N 30°04' W 093°25'0 0.0
2018-Jun-17 04:01N 30°04' W 093°25'0 0.0
2018-Jun-17 03:30N 30°04' W 093°25'0 0.0
2018-Jun-17 03:01N 30°04' W 093°25'0 0.0
2018-Jun-17 02:30N 30°04' W 093°25'0 0.3
2018-Jun-17 02:01N 30°04' W 093°25'2 3.2
2018-Jun-17 01:30N 30°04' W 093°27'2 4.3
2018-Jun-17 01:00N 30°04' W 093°30'2 4.3
2018-Jun-17 00:30N 30°04' W 093°32'2 4.4
2018-Jun-17 00:00N 30°04' W 093°35'2 4.5
2018-Jun-16 23:31N 30°04' W 093°37'3 5.0
2018-Jun-16 23:00N 30°03' W 093°40'2 4.2
2018-Jun-16 22:30N 30°03' W 093°43'2 5.0
2018-Jun-16 22:00N 30°01' W 093°44'3 5.6
2018-Jun-16 21:30N 29°60' W 093°47'3 5.7
2018-Jun-16 21:00N 29°59' W 093°50'2 4.5
2018-Jun-16 20:30N 29°59' W 093°53'3 5.9
2018-Jun-16 20:01N 29°59' W 093°56'2 4.9
2018-Jun-16 19:31N 30°01' W 093°58'1 1.4
2018-Jun-16 19:00N 30°01' W 093°59'0 0.1
2018-Jun-16 18:30N 30°01' W 093°59'0 0.0
2018-Jun-16 18:00N 30°01' W 093°59'0 0.0
2018-Jun-16 17:31N 30°01' W 093°59'0 0.0
2018-Jun-16 17:00N 30°01' W 093°59'0 0.0
2018-Jun-16 16:31N 30°01' W 093°59'0 0.0
2018-Jun-16 16:00N 30°01' W 093°59'0 0.0
2018-Jun-16 15:30N 30°01' W 093°59'0 0.0
2018-Jun-16 15:01N 30°01' W 093°59'0 0.0
2018-Jun-16 14:30N 30°01' W 093°59'0 0.0
2018-Jun-16 14:00N 30°01' W 093°59'0 0.0
2018-Jun-16 13:30N 30°01' W 093°59'0 0.0
2018-Jun-16 13:00N 30°01' W 093°59'0 0.0
2018-Jun-16 12:31N 30°01' W 093°59'0 0.0
2018-Jun-16 12:00N 30°01' W 093°59'0 0.0
2018-Jun-16 11:31N 30°01' W 093°59'0 0.0
2018-Jun-16 11:00N 30°01' W 093°59'0 0.0
2018-Jun-16 10:30N 30°01' W 093°59'0 0.0
2018-Jun-16 10:00N 30°01' W 093°59'0 0.0
2018-Jun-16 09:30N 30°01' W 093°59'0 0.0
2018-Jun-16 09:01N 30°01' W 093°59'0 0.0
2018-Jun-16 08:30N 30°01' W 093°59'0 0.0
2018-Jun-16 08:00N 30°01' W 093°59'0 0.0
2018-Jun-16 07:31N 30°01' W 093°59'0 0.0
2018-Jun-16 07:00N 30°01' W 093°59'0 0.0
2018-Jun-16 06:31N 30°01' W 093°59'0 0.0
2018-Jun-16 06:01N 30°01' W 093°59'0 0.0
2018-Jun-16 05:30N 30°01' W 093°59'0 0.0
2018-Jun-16 05:00N 30°01' W 093°59'0 0.0
2018-Jun-16 04:30N 30°01' W 093°59'0 0.0
2018-Jun-16 04:00N 30°01' W 093°59'0 0.0
2018-Jun-16 03:30N 30°01' W 093°59'0 0.0
2018-Jun-16 03:01N 30°01' W 093°59'0 0.0
2018-Jun-16 02:30N 30°01' W 093°59'0 0.0
2018-Jun-16 02:00N 30°01' W 093°59'0 0.0
2018-Jun-16 01:31N 30°01' W 093°59'0 0.9
2018-Jun-16 01:01N 30°01' W 093°59'0 0.1
2018-Jun-16 00:28N 30°01' W 093°59'0 0.0
2018-Jun-16 00:00N 30°01' W 093°59'0 0.0
2018-Jun-15 23:30N 30°01' W 093°59'0 0.0
2018-Jun-15 23:01N 30°01' W 093°59'0 0.0
2018-Jun-15 22:30N 30°01' W 093°59'0 0.1
2018-Jun-15 22:00N 30°01' W 093°59'0 0.9
2018-Jun-15 21:31N 30°01' W 093°59'0 0.2
2018-Jun-15 21:00N 30°01' W 093°59'0 0.0
2018-Jun-15 20:30N 30°01' W 093°59'0 0.0
2018-Jun-15 20:00N 30°01' W 093°59'0 0.0
2018-Jun-15 19:31N 30°01' W 093°59'0 0.0
2018-Jun-15 19:00N 30°01' W 093°59'0 0.0
2018-Jun-15 18:30N 30°01' W 093°59'0 0.0
2018-Jun-15 18:00N 30°01' W 093°59'0 0.0
2018-Jun-15 17:31N 30°01' W 093°59'0 0.0
2018-Jun-15 17:01N 30°01' W 093°59'0 0.0
2018-Jun-15 16:30N 30°01' W 093°59'0 0.0
2018-Jun-15 16:00N 30°01' W 093°59'0 0.0
2018-Jun-15 15:31N 30°01' W 093°59'0 0.0
2018-Jun-15 15:00N 30°01' W 093°59'0 0.2
2018-Jun-15 14:30N 30°01' W 093°59'1 1.8
2018-Jun-15 14:01N 30°01' W 093°59'1 2.4
2018-Jun-15 13:30N 30°00' W 093°57'3 6.4
2018-Jun-15 13:00N 29°59' W 093°54'3 5.7
2018-Jun-15 12:30N 29°58' W 093°51'3 5.3
2018-Jun-15 12:00N 29°59' W 093°48'3 5.4
2018-Jun-15 11:30N 30°01' W 093°45'3 5.3
2018-Jun-15 11:00N 30°03' W 093°44'3 5.4
2018-Jun-15 10:30N 30°03' W 093°40'3 6.1
2018-Jun-15 10:00N 30°04' W 093°37'3 5.6
2018-Jun-15 09:29N 30°04' W 093°34'3 5.5
2018-Jun-15 09:00N 30°04' W 093°31'3 5.5
2018-Jun-15 08:31N 30°04' W 093°27'3 5.5
2018-Jun-15 08:01N 30°04' W 093°24'2 4.7
2018-Jun-15 07:31N 30°04' W 093°21'2 3.8
2018-Jun-15 07:01N 30°05' W 093°20'2 3.7
2018-Jun-15 06:31N 30°06' W 093°18'1 1.4
2018-Jun-15 06:01N 30°05' W 093°17'1 1.5
2018-Jun-15 05:30N 30°05' W 093°17'2 3.1
2018-Jun-15 05:01N 30°03' W 093°16'1 1.4
2018-Jun-15 04:31N 30°03' W 093°16'0 0.0
2018-Jun-15 04:01N 30°03' W 093°16'0 0.0
2018-Jun-15 03:31N 30°03' W 093°16'0 0.0
2018-Jun-15 03:01N 30°03' W 093°16'0 0.0
2018-Jun-15 02:31N 30°03' W 093°16'0 0.0
2018-Jun-15 02:00N 30°03' W 093°16'0 0.0
2018-Jun-15 01:29N 30°03' W 093°16'0 0.0
2018-Jun-15 01:00N 30°03' W 093°16'0 0.0
2018-Jun-15 00:30N 30°03' W 093°16'0 0.0
2018-Jun-15 00:00N 30°03' W 093°16'0 0.0
2018-Jun-14 23:30N 30°03' W 093°16'0 0.0
2018-Jun-14 22:59N 30°03' W 093°16'0 0.0
2018-Jun-14 22:26N 30°03' W 093°16'0 0.0
2018-Jun-14 22:01N 30°03' W 093°16'0 0.0
2018-Jun-14 21:24N 30°03' W 093°16'0 0.0
2018-Jun-14 20:58N 30°03' W 093°16'0 0.0
2018-Jun-14 20:29N 30°03' W 093°16'0 0.0
2018-Jun-14 20:00N 30°03' W 093°16'0 0.0
2018-Jun-14 19:30N 30°03' W 093°16'0 0.0
2018-Jun-14 19:00N 30°03' W 093°16'0 0.0
2018-Jun-14 18:30N 30°03' W 093°16'0 0.0
2018-Jun-14 18:01N 30°03' W 093°16'0 0.0
2018-Jun-14 17:31N 30°03' W 093°16'0 0.0
2018-Jun-14 17:00N 30°03' W 093°16'0 0.0
2018-Jun-14 16:31N 30°03' W 093°16'0 0.0
2018-Jun-14 16:01N 30°03' W 093°16'0 0.0
2018-Jun-14 15:31N 30°03' W 093°16'0 0.0
2018-Jun-14 15:00N 30°03' W 093°16'0 0.0
2018-Jun-14 14:31N 30°03' W 093°16'0 0.0
2018-Jun-14 14:01N 30°03' W 093°16'0 0.0
2018-Jun-14 13:30N 30°03' W 093°16'0 0.0
2018-Jun-14 13:01N 30°03' W 093°16'0 0.0
2018-Jun-14 12:30N 30°03' W 093°16'0 0.0
2018-Jun-14 12:00N 30°03' W 093°16'0 0.0
2018-Jun-14 11:30N 30°03' W 093°16'0 0.0
2018-Jun-14 10:59N 30°03' W 093°16'0 0.0
2018-Jun-14 10:30N 30°03' W 093°16'0 0.0
2018-Jun-14 09:59N 30°03' W 093°16'0 0.0
2018-Jun-14 09:30N 30°03' W 093°16'0 0.6
2018-Jun-14 09:00N 30°02' W 093°16'2 4.4
2018-Jun-14 08:31N 30°01' W 093°14'2 4.8
2018-Jun-14 08:01N 29°59' W 093°12'2 3.1
2018-Jun-14 07:31N 29°58' W 093°11'0 0.0
2018-Jun-14 07:00N 29°58' W 093°11'0 0.0
2018-Jun-14 06:31N 29°58' W 093°11'0 0.0
2018-Jun-14 06:01N 29°58' W 093°11'0 0.0
2018-Jun-14 05:31N 29°58' W 093°11'0 0.0
2018-Jun-14 05:01N 29°58' W 093°11'0 0.0
2018-Jun-14 04:31N 29°58' W 093°11'0 0.0
2018-Jun-14 04:01N 29°58' W 093°11'0 0.0
2018-Jun-14 03:30N 29°58' W 093°11'0 0.0
2018-Jun-14 03:00N 29°58' W 093°11'0 0.0
2018-Jun-14 02:30N 29°58' W 093°11'0 0.0
2018-Jun-14 02:01N 29°58' W 093°11'0 0.0
2018-Jun-14 01:30N 29°58' W 093°11'0 0.0
2018-Jun-14 01:01N 29°58' W 093°11'0 0.7
2018-Jun-14 00:31N 29°57' W 093°11'2 3.9
2018-Jun-14 00:00N 29°56' W 093°09'1 2.1
2018-Jun-13 23:31N 29°56' W 093°08'0 0.0
2018-Jun-13 23:01N 29°56' W 093°08'0 0.0
2018-Jun-13 22:28N 29°56' W 093°08'0 0.0
2018-Jun-13 22:01N 29°56' W 093°08'0 0.0
2018-Jun-13 21:28N 29°56' W 093°08'0 0.0
2018-Jun-13 21:00N 29°56' W 093°08'0 0.1
2018-Jun-13 20:30N 29°56' W 093°08'2 3.6
2018-Jun-13 19:57N 29°56' W 093°06'34 5.1
2018-Jun-13 13:17N 29°53' W 092°27'2 6.3
2018-Jun-13 13:00N 29°53' W 092°25'3 5.2
2018-Jun-13 12:22N 29°51' W 092°22'2 5.4
2018-Jun-13 12:00N 29°50' W 092°20'2 4.5
2018-Jun-13 11:31N 29°49' W 092°17'3 5.6
2018-Jun-13 11:00N 29°48' W 092°15'2 4.2
2018-Jun-13 10:31N 29°47' W 092°12'1 2.1
2018-Jun-13 10:00N 29°47' W 092°11'0 0.1
2018-Jun-13 09:31N 29°47' W 092°11'0 0.0
2018-Jun-13 09:00N 29°47' W 092°11'0 0.0
2018-Jun-13 08:30N 29°47' W 092°11'0 0.1
2018-Jun-13 08:00N 29°47' W 092°11'1 2.7
2018-Jun-13 07:30N 29°47' W 092°10'2 4.7
2018-Jun-13 07:00N 29°47' W 092°07'2 4.9
2018-Jun-13 06:30N 29°48' W 092°04'2 4.1
2018-Jun-13 06:00N 29°49' W 092°02'1 2.5
2018-Jun-13 05:30N 29°50' W 092°01'0 0.0
2018-Jun-13 05:00N 29°50' W 092°01'0 0.0
2018-Jun-13 04:30N 29°50' W 092°01'2 3.4
2018-Jun-13 03:55N 29°50' W 091°59'  
2018-Jun-09 08:03N 29°51' W 091°55'0 5.0
2018-Jun-09 08:01N 29°51' W 091°55'2 4.7
2018-Jun-09 07:30N 29°50' W 091°57'2 4.7
2018-Jun-09 07:00N 29°50' W 092°00'2 4.5
2018-Jun-09 06:31N 29°49' W 092°02'2 4.4
2018-Jun-09 06:00N 29°48' W 092°05'2 3.7
2018-Jun-09 05:31N 29°48' W 092°07'  

Dump ship's entire track history